»·PEaware :: N148WT KPSP-KSAN

N148WT :: KPSP-KSAN

FLIGHT INFORMATION

Flight Status: Arrived
Operator: Privately registered:
United States
More flights under this callsign
Pilot: Vlad D. (11271)
Aircraft: Unknown
(B60T)
More flights by this aircraft type
Origin: KPSP Palm Springs Intl
United States
Destination: KSAN San Diego Intl-Lindbergh
United States
More flights between these airports :: More routes between these airports
Route: +CATH1 PSP V137 TRM V514 MZB
File this flight plan on PilotEdge
Remarks:
Altitude:
(Current/Filed)
14,000ft
Speed:
(Current/Filed)
250kts
Departed: 30-May-16 07:32 AM
Arrived: 30-May-16 08:09 AM
Distance/Time
Traveled:
74nm/0:37
Distance/Time
To Go:
Arrived

Flight Plot

Page will automatically refresh every two minutes.

Flight plan parsing failed; only flown route is shown


Map Options




Map Legend


Flown Route
Filed Route
Departure Airport
Arrival Airport
Navaid (VOR, NDB)
Fix

Horizontal Profiles

Position Reports

Time Latitude Longitude Heading Altitude Ground
Speed
30-May-16 07:05 33.823076 -116.498071 53 480ft 0kts
30-May-16 07:06 33.823076 -116.498071 53 480ft 0kts
30-May-16 07:07 33.823076 -116.498071 53 480ft 0kts
30-May-16 07:08 33.823076 -116.498071 53 480ft 0kts
30-May-16 07:09 33.823076 -116.498071 53 480ft 0kts
30-May-16 07:10 33.823076 -116.498071 53 480ft 0kts
30-May-16 07:11 33.823076 -116.498071 53 480ft 0kts
30-May-16 07:12 33.823076 -116.498071 53 480ft 0kts
30-May-16 07:13 33.823076 -116.498071 53 480ft 0kts
30-May-16 07:14 33.823076 -116.498071 53 480ft 0kts
30-May-16 07:15 33.823076 -116.498071 53 480ft 0kts
30-May-16 07:16 33.823076 -116.498071 53 480ft 0kts
30-May-16 07:17 33.823076 -116.498071 53 480ft 0kts
30-May-16 07:18 33.823076 -116.498071 53 480ft 0kts
30-May-16 07:19 33.823076 -116.498071 53 480ft 0kts
30-May-16 07:20 33.823076 -116.498071 53 480ft 0kts
30-May-16 07:21 33.823076 -116.498071 53 480ft 0kts
30-May-16 07:22 33.823076 -116.498071 53 480ft 0kts
30-May-16 07:23 33.823076 -116.498071 53 480ft 0kts
30-May-16 07:24 33.823076 -116.498071 53 480ft 0kts
30-May-16 07:25 33.823076 -116.498071 53 480ft 0kts
30-May-16 07:26 33.822947 -116.498005 231 480ft 8kts
30-May-16 07:27 33.824650 -116.499202 305 480ft 5kts
30-May-16 07:28 33.824675 -116.499505 239 480ft 0kts
30-May-16 07:29 33.824569 -116.499692 234 480ft 8kts
30-May-16 07:30 33.834884 -116.509665 322 897ft 130kts
30-May-16 07:31 33.862304 -116.536366 318 4545ft 124kts
30-May-16 07:32 33.890378 -116.565147 328 8164ft 141kts
30-May-16 07:33 33.922579 -116.541687 97 10240ft 187kts
30-May-16 07:34 33.884937 -116.503111 153 12291ft 179kts
30-May-16 07:35 33.858748 -116.449465 121 13291ft 212kts
30-May-16 07:36 33.817077 -116.394637 130 13993ft 232kts
30-May-16 07:37 33.771148 -116.337585 130 13998ft 240kts
30-May-16 07:38 33.723660 -116.278572 130 13976ft 243kts
30-May-16 07:39 33.684689 -116.230203 130 13975ft 240kts
30-May-16 07:40 33.621062 -116.180330 180 13962ft 248kts
30-May-16 07:41 33.560579 -116.219705 217 13961ft 249kts
30-May-16 07:42 33.513161 -116.261162 217 13964ft 251kts
30-May-16 07:43 33.457218 -116.310126 217 13976ft 247kts
30-May-16 07:44 33.400840 -116.359413 217 13981ft 249kts
30-May-16 07:45 33.343974 -116.409048 217 13993ft 253kts
30-May-16 07:46 33.287289 -116.458446 217 14014ft 250kts
30-May-16 07:47 33.230754 -116.507632 217 14045ft 251kts
30-May-16 07:48 33.174647 -116.556345 217 13271ft 226kts
30-May-16 07:49 33.124370 -116.588776 180 11838ft 223kts
30-May-16 07:50 33.060652 -116.594283 183 10394ft 229kts
30-May-16 07:51 33.000814 -116.600474 183 9962ft 201kts
30-May-16 07:52 32.943137 -116.606393 183 9965ft 210kts
30-May-16 07:53 32.884973 -116.612416 183 9967ft 208kts
30-May-16 07:54 32.827214 -116.618387 183 9967ft 208kts
30-May-16 07:55 32.776207 -116.646674 229 9276ft 217kts
30-May-16 07:56 32.738686 -116.703424 232 7833ft 217kts
30-May-16 07:57 32.704690 -116.761804 248 6396ft 209kts
30-May-16 07:58 32.686482 -116.824161 252 5088ft 186kts
30-May-16 07:59 32.670811 -116.879897 252 4957ft 170kts
30-May-16 08:00 32.672013 -116.932594 287 4465ft 141kts
30-May-16 08:01 32.683371 -116.978177 281 3589ft 141kts
30-May-16 08:02 32.694503 -117.023609 285 2548ft 131kts
30-May-16 08:03 32.704370 -117.062767 283 2098ft 129kts
30-May-16 08:04 32.712252 -117.102406 280 1653ft 116kts
30-May-16 08:05 32.721698 -117.140468 284 882ft 111kts
30-May-16 08:06 32.729673 -117.173776 284 176ft 101kts
30-May-16 08:07 32.734380 -117.190902 27 18ft 9kts
30-May-16 08:08 32.734620 -117.190746 31 18ft 0kts
30-May-16 08:09 32.734642 -117.189328 106 18ft 13kts
30-May-16 08:10 32.733659 -117.185289 105 18ft 11kts
30-May-16 08:11 32.732786 -117.181611 105 18ft 11kts
30-May-16 08:12 32.732601 -117.178836 58 18ft 5kts
30-May-16 08:13 32.732671 -117.178730 49 18ft 0kts
30-May-16 08:14 32.732672 -117.178729 49 18ft 0kts
30-May-16 08:15 32.732672 -117.178729 49 18ft 0kts

Navigation Log

Ident Type
Flight plan parsing failed, navigation log unavailable